Latest Weather Observations for Kalgoorlie-Boulder

IDW60801

Issued at 10:02 pm WST Tuesday 30 June 2015 (issued every 30 minutes, with the page automatically refreshed every 10 minutes)

About weather observations | Map of weather stations | Latest weather observations for WA | Other Formats
Station Details ID: 012038 Name: KALGOORLIE-BOULDER AIRPORT Lat: -30.78 Lon: 121.45 Height: 365.3 m
Data from the previous 72 hours. | See also: Recent months at Kalgoorlie-Boulder
Date/Time
WST
Temp
°C
App
Temp
°C
Dew
Point
Rel
Hum
%
Delta-T
°C
Wind Press
QNH
hPa
Press
MSL
hPa
Rain
since 9 am
mm
Dir
 
Spd
km/h
Gust
km/h
Spd
kts
Gust
kts
30/10:00pm 10.9 7.8 0.0 47 4.5 N 6 9 3 5 1027.4 - 0.0
30/09:30pm 11.5 8.3 0.5 46 4.6 N 7 9 4 5 1027.1 - 0.0
30/09:00pm 12.0 8.3 0.0 43 5.0 NNE 9 11 5 6 1026.8 1026.8 0.0
30/08:30pm 11.6 8.3 0.0 45 4.8 N 7 9 4 5 1027.0 - 0.0
30/08:00pm 11.6 8.3 0.0 45 4.8 N 7 9 4 5 1027.0 - 0.0
30/07:30pm 11.8 9.1 0.3 45 4.8 N 4 7 2 4 1026.9 - 0.0
30/07:00pm 12.1 10.2 0.5 45 4.9 CALM 0 0 0 0 1026.6 - 0.0
30/06:30pm 13.2 11.3 0.5 42 5.4 CALM 0 0 0 0 1026.5 - 0.0
30/06:00pm 14.1 11.0 0.3 39 5.9 N 6 7 3 4 1025.9 1026.0 0.0
30/05:30pm 14.6 11.4 0.8 39 6.0 N 7 7 4 4 1025.8 - 0.0
30/05:00pm 15.6 12.3 0.4 35 6.6 N 7 7 4 4 1025.8 - 0.0
30/04:30pm 17.3 13.8 -1.2 28 7.9 N 7 11 4 6 1025.7 - 0.0
30/04:00pm 18.6 15.0 -2.2 24 8.9 NNE 7 9 4 5 1025.5 - 0.0
30/03:30pm 18.9 15.3 -2.0 24 9.0 N 7 13 4 7 1025.4 - 0.0
30/03:00pm 18.8 14.4 -2.2 24 8.9 NNW 11 19 6 10 1025.4 1025.4 0.0
30/02:30pm 19.1 14.3 -2.8 22 9.3 N 13 17 7 9 1025.5 - 0.0
30/02:00pm 18.9 14.1 -2.4 23 9.1 N 13 20 7 11 1025.5 - 0.0
30/01:30pm 18.9 14.2 -2.0 24 8.9 N 13 17 7 9 1025.7 - 0.0
30/01:00pm 18.3 12.8 -2.4 24 8.7 NNW 17 28 9 15 1025.9 - 0.0
30/12:00pm 17.4 11.5 -2.2 26 8.2 N 19 28 10 15 1027.0 1027.0 0.0
30/11:30am 17.1 11.4 -0.8 29 7.7 NNW 19 28 10 15 1027.9 - 0.0
30/10:30am 14.3 9.4 -0.4 36 6.2 N 15 20 8 11 1028.9 - 0.0
30/10:00am 13.2 7.5 -0.8 38 5.8 N 19 24 10 13 1029.2 - 0.0
30/09:30am 13.4 8.1 -0.9 37 6.0 N 17 24 9 13 1029.0 - 0.4
30/08:30am 9.2 5.8 -0.9 49 4.0 N 7 9 4 5 1028.7 - 0.0
30/08:00am 7.4 4.1 0.1 60 2.9 N 7 7 4 4 1028.6 - 0.0
30/07:30am 4.9 1.7 -0.3 69 2.0 N 6 6 3 3 1028.2 - 0.0
30/07:00am 5.3 2.0 -1.0 64 2.4 N 6 7 3 4 1027.9 - 0.0
30/06:30am 5.3 1.4 -1.4 62 2.5 N 9 11 5 6 1027.7 - 0.0
30/06:00am 5.1 1.6 -1.0 65 2.3 N 7 9 4 5 1027.3 1027.3 0.0
30/05:30am 5.0 1.5 -1.1 65 2.3 N 7 9 4 5 1027.1 - 0.0
30/05:00am 4.5 2.3 -1.4 65 2.2 CALM 0 0 0 0 1027.1 - 0.0
30/04:30am 5.5 3.3 -1.7 60 2.7 CALM 0 0 0 0 1026.7 - 0.0
30/04:00am 5.9 3.7 -1.9 57 2.9 CALM 0 0 0 0 1026.7 - 0.0
30/03:30am 6.4 3.8 -1.5 57 3.0 NE 2 7 1 4 1026.4 - 0.0
30/03:00am 6.5 3.2 -1.4 57 3.0 NNE 6 7 3 4 1026.6 1026.6 0.0
30/02:30am 7.4 5.2 -1.8 52 3.5 CALM 0 0 0 0 1026.9 - 0.0
30/02:00am 7.5 3.9 -2.0 51 3.6 NNE 7 7 4 4 1026.8 - 0.0
30/01:30am 7.6 5.3 -2.6 48 3.8 CALM 0 0 0 0 1026.9 - 0.0
30/01:00am 7.5 5.2 -2.7 48 3.8 CALM 0 0 0 0 1026.9 - 0.0
30/12:30am 6.7 4.4 -2.1 53 3.3 CALM 0 0 0 0 1026.7 - 0.0
30/12:00am 7.4 5.0 -2.9 48 3.8 CALM 0 0 0 0 1026.8 1026.8 0.0
 
Date/Time
WST
Temp
°C
App
Temp
°C
Dew
Point
Rel
Hum
%
Delta-T
°C
Wind Press
QNH
hPa
Press
MSL
hPa
Rain
since 9 am
mm
Dir
 
Spd
km/h
Gust
km/h
Spd
kts
Gust
kts
29/11:30pm 7.8 4.3 -2.6 48 3.9 N 6 9 3 5 1026.9 - 0.0
29/11:00pm 8.7 4.6 -3.0 43 4.4 NNE 9 9 5 5 1027.1 - 0.0
29/10:30pm 7.4 4.1 -1.5 53 3.4 NNE 6 11 3 6 1027.2 - 0.0
29/10:00pm 6.8 4.6 -1.6 55 3.2 CALM 0 0 0 0 1027.5 - 0.0
29/09:30pm 7.1 4.9 -1.9 53 3.4 CALM 0 0 0 0 1027.8 - 0.0
29/09:00pm 8.2 6.0 -1.7 49 3.8 CALM 0 0 0 0 1027.8 1027.8 0.0
29/08:30pm 7.9 5.8 -0.8 54 3.4 CALM 0 0 0 0 1027.6 - 0.0
29/08:00pm 9.4 6.1 -1.6 46 4.3 SE 6 9 3 5 1027.5 - 0.0
29/07:30pm 10.6 7.1 -2.6 39 5.1 SSE 6 7 3 4 1027.4 - 0.0
29/07:00pm 10.2 6.6 -2.1 42 4.8 ESE 7 9 4 5 1027.3 - 0.0
29/06:30pm 10.4 7.8 -1.5 43 4.7 S 2 7 1 4 1027.1 - 0.0
29/06:00pm 12.1 8.4 -2.7 35 5.8 SSW 7 9 4 5 1026.9 1026.9 0.0
29/05:30pm 12.0 8.5 -1.4 39 5.4 SSW 7 9 4 5 1026.8 - 0.0
29/05:00pm 14.7 12.4 -2.6 30 7.0 CALM 0 0 0 0 1026.7 - 0.0
29/04:30pm 17.9 15.3 -2.0 26 8.4 N 2 6 1 3 1026.5 - 0.0
29/04:00pm 18.1 15.2 -4.1 22 9.0 NNW 2 11 1 6 1026.5 - 0.0
29/03:30pm 18.1 14.3 -5.1 20 9.3 N 6 9 3 5 1026.4 - 0.0
29/03:00pm 17.6 13.9 -4.3 22 8.8 E 6 11 3 6 1026.5 1026.5 0.0
29/02:30pm 17.7 13.9 -5.1 20 9.1 N 6 13 3 7 1026.6 - 0.0
29/02:00pm 17.9 14.3 -3.7 22 8.9 N 6 17 3 9 1026.8 - 0.0
29/01:30pm 17.4 13.1 -4.4 22 8.8 N 9 17 5 9 1027.1 - 0.0
29/01:00pm 17.1 12.9 -4.1 23 8.5 N 9 17 5 9 1027.5 - 0.0
29/12:30pm 16.7 12.0 -5.5 21 8.7 N 11 19 6 10 1028.1 - 0.0
29/12:00pm 16.4 11.6 -5.7 21 8.5 N 11 19 6 10 1028.6 1028.7 0.0
29/11:30am 16.1 10.5 -5.9 21 8.4 NNE 15 20 8 11 1028.8 - 0.0
29/11:00am 15.6 10.4 -6.6 21 8.4 N 13 20 7 11 1029.3 - 0.0
29/10:30am 14.4 9.4 -4.5 26 7.3 N 13 17 7 9 1029.7 - 0.0
29/10:00am 13.1 8.5 -3.7 31 6.6 NNE 11 15 6 8 1030.1 - 0.0
29/09:30am 11.5 7.4 -3.4 35 5.7 NNE 9 13 5 7 1030.3 - 0.0
29/09:00am 9.5 6.3 -0.8 48 4.1 NE 6 7 3 4 1030.2 1030.2 0.0
29/08:30am 7.5 4.2 0.2 60 2.9 SE 7 9 4 5 1030.2 - 0.0
29/08:00am 6.1 3.1 0.8 69 2.1 SSE 6 7 3 4 1030.0 - 0.0
29/07:30am 3.3 0.3 1.0 85 0.9 SE 6 7 3 4 1029.9 - 0.0
29/07:00am 2.9 -0.3 -0.3 79 1.2 SE 6 7 3 4 1029.4 - 0.0
29/06:30am 2.2 -1.0 -0.5 82 1.0 SE 6 6 3 3 1029.2 - 0.0
29/06:00am 5.5 3.3 -1.8 59 2.7 CALM 0 6 0 3 1029.0 1029.1 0.0
29/05:30am 5.8 3.5 -2.4 55 3.0 CALM 0 4 0 2 1028.7 - 0.0
29/05:00am 6.2 2.8 -2.1 55 3.1 NNE 6 6 3 3 1028.4 - 0.0
29/04:30am 7.0 3.9 -2.4 51 3.5 NNE 4 9 2 5 1028.7 - 0.0
29/04:00am 8.2 4.1 -2.7 46 4.1 NNE 9 13 5 7 1028.4 - 0.0
29/03:30am 8.9 4.4 -3.1 42 4.5 NE 11 17 6 9 1028.4 - 0.0
29/03:00am 9.3 4.4 -3.2 41 4.7 NE 13 19 7 10 1028.5 1028.6 0.0
29/02:30am 9.2 5.2 -2.6 43 4.5 NNE 9 15 5 8 1028.5 - 0.0
29/02:00am 9.7 4.6 -2.2 43 4.6 ENE 15 20 8 11 1028.6 - 0.0
29/01:30am 8.8 5.0 -0.8 51 3.8 NE 9 13 5 7 1029.2 - 0.0
29/01:00am 8.5 6.6 0.3 56 3.3 CALM 0 6 0 3 1029.5 - 0.0
29/12:30am 9.9 5.8 -0.2 49 4.1 NE 11 15 6 8 1029.4 - 0.0
29/12:00am 9.7 6.2 1.1 55 3.6 ENE 9 11 5 6 1029.6 1029.6 0.0
 
Date/Time
WST
Temp
°C
App
Temp
°C
Dew
Point
Rel
Hum
%
Delta-T
°C
Wind Press
QNH
hPa
Press
MSL
hPa
Rain
since 9 am
mm
Dir
 
Spd
km/h
Gust
km/h
Spd
kts
Gust
kts
28/11:30pm 8.4 6.3 1.7 63 2.8 ENE 2 9 1 5 1029.8 - 0.0
28/11:00pm 9.3 6.0 2.3 61 3.0 ESE 9 11 5 6 1029.9 - 0.0
28/10:30pm 9.7 5.6 2.5 61 3.1 ESE 13 17 7 9 1030.0 - 0.0
28/10:00pm 10.2 6.1 2.3 58 3.4 SE 13 17 7 9 1030.1 - 0.0
28/09:30pm 10.5 6.4 2.4 57 3.5 SE 13 15 7 8 1030.2 - 0.0
28/09:00pm 10.9 7.2 2.4 55 3.7 ESE 11 15 6 8 1030.2 1030.2 0.0
28/08:30pm 10.5 7.1 2.1 56 3.6 ESE 9 15 5 8 1030.1 - 0.0
28/08:00pm 10.2 7.2 2.0 57 3.5 SE 7 9 4 5 1030.0 - 0.0
28/07:30pm 11.4 7.5 1.0 49 4.4 SE 11 13 6 7 1029.7 - 0.0
28/07:00pm 11.8 7.3 0.0 44 4.9 SE 13 17 7 9 1029.2 - 0.0
28/06:30pm 11.7 8.6 0.2 45 4.8 ENE 6 7 3 4 1028.8 - 0.0
28/06:00pm 12.1 8.7 1.7 49 4.5 E 9 9 5 5 1028.7 1028.8 0.0
28/05:30pm 13.8 10.6 0.8 41 5.6 E 7 9 4 5 1028.6 - 0.0
28/05:00pm 15.2 11.6 0.8 37 6.3 ENE 9 13 5 7 1028.4 - 0.0
28/04:30pm 16.7 13.0 -0.1 32 7.3 E 9 15 5 8 1028.3 - 0.0
28/04:00pm 17.2 13.1 -0.3 30 7.6 NE 11 15 6 8 1028.2 - 0.0
28/03:30pm 17.3 13.2 -0.1 30 7.6 E 11 22 6 12 1028.3 - 0.0
28/03:00pm 17.9 13.8 -0.1 29 7.9 NE 11 17 6 9 1028.3 1028.4 0.0
28/02:30pm 17.5 12.9 1.3 33 7.3 ENE 15 24 8 13 1028.3 - 0.0
28/02:00pm 17.7 14.0 2.3 35 7.1 ENE 11 17 6 9 1028.5 - 0.0
28/01:30pm 17.4 13.3 2.4 36 6.9 NNE 13 19 7 10 1028.7 - 0.0
28/01:00pm 16.6 13.1 3.6 42 6.1 E 11 19 6 10 1029.2 - 0.0
28/12:30pm 16.1 13.2 4.5 46 5.6 E 9 17 5 9 1029.8 - 0.0
28/12:00pm 14.6 12.0 5.9 56 4.2 E 9 17 5 9 1030.4 1030.5 0.0
28/11:30am 14.0 11.0 5.9 58 3.9 E 11 19 6 10 1030.9 - 0.0
28/11:00am 13.1 9.8 6.2 63 3.3 ESE 13 20 7 11 1031.3 - 0.0
28/10:30am 12.1 8.8 6.5 68 2.7 ESE 13 17 7 9 1031.8 - 0.0
28/10:00am 11.6 8.4 6.8 72 2.3 E 13 19 7 10 1032.1 - 0.0
28/09:49am 11.3 7.7 6.9 74 2.1 ESE 15 19 8 10 1032.2 - 0.0
28/09:30am 10.5 7.3 6.7 77 1.8 E 13 20 7 11 1032.4 - 0.0
28/09:00am 10.1 6.6 7.2 82 1.4 SE 15 20 8 11 1032.3 1032.3 0.0
28/08:30am 9.6 5.7 7.3 85 1.1 ESE 17 24 9 13 1032.1 - 0.0
28/08:00am 9.2 5.3 7.3 88 0.9 ESE 17 24 9 13 1032.1 - 0.0
28/07:30am 8.7 4.8 7.2 90 0.7 ESE 17 20 9 11 1031.8 - 0.0
28/07:00am 8.4 4.9 7.3 93 0.5 SE 15 17 8 9 1031.7 - 0.0
28/06:30am 8.1 4.6 7.3 95 0.4 ESE 15 20 8 11 1031.6 - 0.0
28/06:00am 7.7 4.2 7.1 96 0.3 ESE 15 17 8 9 1031.3 1031.4 0.0
28/05:38am 7.4 3.9 7.0 97 0.2 ESE 15 20 8 11 1031.4 - 0.0
28/05:30am 7.3 3.4 6.9 97 0.2 ESE 17 22 9 12 1031.2 - 0.0
28/05:06am 7.1 3.9 6.7 97 0.2 SE 13 19 7 10 1031.1 - 0.0
28/05:00am 7.0 4.1 6.6 97 0.2 SE 11 19 6 10 1031.1 - 0.0
28/04:30am 6.3 3.6 5.6 95 0.3 SSE 9 11 5 6 1031.1 - 0.0
28/04:00am 5.7 3.2 4.8 94 0.4 SSE 7 9 4 5 1031.0 - 0.0
28/03:58am 5.6 3.1 4.7 94 0.4 SSE 7 9 4 5 1031.0 - 0.0
28/03:30am 5.1 2.5 4.2 94 0.4 SE 7 9 4 5 1030.8 - 0.0
28/03:00am 5.3 2.6 3.9 91 0.6 SSE 7 9 4 5 1030.9 1031.0 0.0
28/02:30am 5.2 2.5 3.5 89 0.7 SSE 7 9 4 5 1031.0 - 0.0
28/02:00am 5.3 2.7 3.4 87 0.8 SSE 6 9 3 5 1030.9 - 0.0
28/01:30am 5.6 2.0 3.2 84 1.0 SE 11 13 6 7 1030.9 - 0.0
28/01:00am 6.0 1.6 2.6 79 1.4 SE 15 17 8 9 1030.8 - 0.0
28/12:30am 6.0 2.6 1.8 74 1.7 ESE 9 11 5 6 1030.8 - 0.0
28/12:00am 6.5 3.1 1.9 72 1.9 SE 9 13 5 7 1031.0 1031.1 0.0
 
Date/Time
WST
Temp
°C
App
Temp
°C
Dew
Point
Rel
Hum
%
Delta-T
°C
Wind Press
QNH
hPa
Press
MSL
hPa
Rain
since 9 am
mm
Dir
 
Spd
km/h
Gust
km/h
Spd
kts
Gust
kts
27/11:30pm 7.3 4.2 1.5 66 2.4 SE 7 9 4 5 1030.9 - 0.0
27/11:00pm 7.4 3.9 1.3 65 2.5 SE 9 11 5 6 1031.0 - 0.0
27/10:30pm 7.5 4.0 1.4 65 2.5 SE 9 13 5 7 1031.2 - 0.0

Other Formats:

Comma delimited format used in spreadsheet applications
http://www.bom.gov.au/fwo/IDW60801/IDW60801.94637.axf

JavaScript Object Notation format (JSON) in row-major order
http://www.bom.gov.au/fwo/IDW60801/IDW60801.94637.json